sensor_id;sensor_type;location;lat;lon;timestamp;P1;durP1;ratioP1;P2;durP2;ratioP2
48092;SDS011;33873;47.442;18.902;2022-10-16T00:01:34;9.07;;;4.55;;
48092;SDS011;33873;47.442;18.902;2022-10-16T00:04:02;8.35;;;3.45;;
48092;SDS011;33873;47.442;18.902;2022-10-16T00:06:30;6.50;;;2.80;;
48092;SDS011;33873;47.442;18.902;2022-10-16T00:08:58;6.65;;;3.70;;
48092;SDS011;33873;47.442;18.902;2022-10-16T00:11:30;7.78;;;4.45;;
48092;SDS011;33873;47.442;18.902;2022-10-16T00:14:05;8.80;;;3.35;;
48092;SDS011;33873;47.442;18.902;2022-10-16T00:16:34;10.00;;;5.30;;
48092;SDS011;33873;47.442;18.902;2022-10-16T00:19:02;7.70;;;2.60;;
48092;SDS011;33873;47.442;18.902;2022-10-16T00:21:31;14.23;;;5.12;;
48092;SDS011;33873;47.442;18.902;2022-10-16T00:24:17;14.80;;;4.87;;
48092;SDS011;33873;47.442;18.902;2022-10-16T00:26:45;8.23;;;4.10;;
48092;SDS011;33873;47.442;18.902;2022-10-16T00:29:13;6.35;;;3.97;;
48092;SDS011;33873;47.442;18.902;2022-10-16T00:31:40;8.48;;;3.62;;
48092;SDS011;33873;47.442;18.902;2022-10-16T00:34:08;6.68;;;3.65;;
48092;SDS011;33873;47.442;18.902;2022-10-16T00:36:35;7.53;;;4.55;;
48092;SDS011;33873;47.442;18.902;2022-10-16T00:39:03;24.30;;;5.00;;
48092;SDS011;33873;47.442;18.902;2022-10-16T00:41:31;5.20;;;2.78;;
48092;SDS011;33873;47.442;18.902;2022-10-16T00:43:59;12.75;;;3.33;;
48092;SDS011;33873;47.442;18.902;2022-10-16T00:46:35;4.50;;;2.65;;
48092;SDS011;33873;47.442;18.902;2022-10-16T00:49:09;5.68;;;3.12;;
48092;SDS011;33873;47.442;18.902;2022-10-16T00:51:42;5.78;;;3.03;;
48092;SDS011;33873;47.442;18.902;2022-10-16T00:54:13;3.73;;;2.43;;
48092;SDS011;33873;47.442;18.902;2022-10-16T00:56:43;5.57;;;2.62;;
48092;SDS011;33873;47.442;18.902;2022-10-16T00:59:22;4.62;;;3.37;;
48092;SDS011;33873;47.442;18.902;2022-10-16T01:01:52;6.45;;;3.17;;
48092;SDS011;33873;47.442;18.902;2022-10-16T01:04:20;5.78;;;3.17;;
48092;SDS011;33873;47.442;18.902;2022-10-16T01:06:51;6.43;;;3.65;;
48092;SDS011;33873;47.442;18.902;2022-10-16T01:09:23;5.62;;;3.45;;
48092;SDS011;33873;47.442;18.902;2022-10-16T01:17:33;2.67;;;2.08;;
48092;SDS011;33873;47.442;18.902;2022-10-16T01:20:16;5.28;;;2.33;;
48092;SDS011;33873;47.442;18.902;2022-10-16T01:28:22;5.28;;;2.95;;
48092;SDS011;33873;47.442;18.902;2022-10-16T01:30:53;6.25;;;3.08;;
48092;SDS011;33873;47.442;18.902;2022-10-16T01:33:24;5.10;;;3.03;;
48092;SDS011;33873;47.442;18.902;2022-10-16T01:35:58;5.62;;;3.40;;
48092;SDS011;33873;47.442;18.902;2022-10-16T01:38:36;9.30;;;3.47;;
48092;SDS011;33873;47.442;18.902;2022-10-16T01:41:15;4.62;;;2.58;;
48092;SDS011;33873;47.442;18.902;2022-10-16T01:46:34;5.07;;;2.83;;
48092;SDS011;33873;47.442;18.902;2022-10-16T01:49:03;5.68;;;3.15;;
48092;SDS011;33873;47.442;18.902;2022-10-16T01:51:31;4.95;;;2.83;;
48092;SDS011;33873;47.442;18.902;2022-10-16T01:54:00;4.03;;;2.55;;
48092;SDS011;33873;47.442;18.902;2022-10-16T01:56:28;6.78;;;3.65;;
48092;SDS011;33873;47.442;18.902;2022-10-16T01:59:30;4.68;;;2.58;;
48092;SDS011;33873;47.442;18.902;2022-10-16T02:01:55;3.65;;;2.42;;
48092;SDS011;33873;47.442;18.902;2022-10-16T02:07:00;2.50;;;1.80;;
48092;SDS011;33873;47.442;18.902;2022-10-16T02:09:29;4.43;;;2.78;;
48092;SDS011;33873;47.442;18.902;2022-10-16T02:11:57;5.07;;;2.60;;
48092;SDS011;33873;47.442;18.902;2022-10-16T02:14:29;5.12;;;2.92;;
48092;SDS011;33873;47.442;18.902;2022-10-16T02:16:57;6.22;;;3.90;;
48092;SDS011;33873;47.442;18.902;2022-10-16T02:19:24;4.85;;;2.78;;
48092;SDS011;33873;47.442;18.902;2022-10-16T02:22:00;2.65;;;2.08;;
48092;SDS011;33873;47.442;18.902;2022-10-16T02:27:02;6.53;;;3.28;;
48092;SDS011;33873;47.442;18.902;2022-10-16T02:29:32;3.35;;;2.17;;
48092;SDS011;33873;47.442;18.902;2022-10-16T02:32:02;4.22;;;2.28;;
48092;SDS011;33873;47.442;18.902;2022-10-16T02:34:31;6.75;;;3.05;;
48092;SDS011;33873;47.442;18.902;2022-10-16T02:37:00;8.20;;;2.33;;
48092;SDS011;33873;47.442;18.902;2022-10-16T02:39:28;3.67;;;2.20;;
48092;SDS011;33873;47.442;18.902;2022-10-16T02:41:56;4.95;;;2.05;;
48092;SDS011;33873;47.442;18.902;2022-10-16T02:44:23;2.55;;;2.28;;
48092;SDS011;33873;47.442;18.902;2022-10-16T02:46:51;4.95;;;2.95;;
48092;SDS011;33873;47.442;18.902;2022-10-16T02:49:18;6.10;;;3.83;;
48092;SDS011;33873;47.442;18.902;2022-10-16T02:51:46;3.72;;;2.50;;
48092;SDS011;33873;47.442;18.902;2022-10-16T02:54:13;3.90;;;3.00;;
48092;SDS011;33873;47.442;18.902;2022-10-16T02:56:41;4.87;;;2.97;;
48092;SDS011;33873;47.442;18.902;2022-10-16T02:59:08;4.72;;;1.77;;
48092;SDS011;33873;47.442;18.902;2022-10-16T03:01:36;4.12;;;2.53;;
48092;SDS011;33873;47.442;18.902;2022-10-16T03:04:04;4.68;;;3.15;;
48092;SDS011;33873;47.442;18.902;2022-10-16T03:06:31;5.07;;;3.25;;
48092;SDS011;33873;47.442;18.902;2022-10-16T03:08:59;5.43;;;3.60;;
48092;SDS011;33873;47.442;18.902;2022-10-16T03:11:26;5.00;;;3.10;;
48092;SDS011;33873;47.442;18.902;2022-10-16T03:13:55;8.82;;;4.18;;
48092;SDS011;33873;47.442;18.902;2022-10-16T03:16:22;5.57;;;2.92;;
48092;SDS011;33873;47.442;18.902;2022-10-16T03:18:50;2.65;;;1.85;;
48092;SDS011;33873;47.442;18.902;2022-10-16T03:21:17;3.00;;;2.30;;
48092;SDS011;33873;47.442;18.902;2022-10-16T03:23:45;7.18;;;3.05;;
48092;SDS011;33873;47.442;18.902;2022-10-16T03:26:13;4.75;;;2.75;;
48092;SDS011;33873;47.442;18.902;2022-10-16T03:28:41;5.07;;;3.30;;
48092;SDS011;33873;47.442;18.902;2022-10-16T03:31:09;4.43;;;3.10;;
48092;SDS011;33873;47.442;18.902;2022-10-16T03:33:36;4.95;;;3.08;;
48092;SDS011;33873;47.442;18.902;2022-10-16T03:36:03;3.65;;;2.15;;
48092;SDS011;33873;47.442;18.902;2022-10-16T03:38:31;5.55;;;2.47;;
48092;SDS011;33873;47.442;18.902;2022-10-16T03:40:59;5.30;;;2.78;;
48092;SDS011;33873;47.442;18.902;2022-10-16T03:43:26;4.90;;;2.80;;
48092;SDS011;33873;47.442;18.902;2022-10-16T03:45:54;5.28;;;2.47;;
48092;SDS011;33873;47.442;18.902;2022-10-16T03:48:21;3.95;;;2.85;;
48092;SDS011;33873;47.442;18.902;2022-10-16T03:50:49;6.80;;;3.35;;
48092;SDS011;33873;47.442;18.902;2022-10-16T03:53:17;7.80;;;3.15;;
48092;SDS011;33873;47.442;18.902;2022-10-16T03:55:45;4.85;;;2.55;;
48092;SDS011;33873;47.442;18.902;2022-10-16T03:58:12;6.12;;;3.87;;
48092;SDS011;33873;47.442;18.902;2022-10-16T04:00:44;5.20;;;2.92;;
48092;SDS011;33873;47.442;18.902;2022-10-16T04:03:12;4.12;;;2.00;;
48092;SDS011;33873;47.442;18.902;2022-10-16T04:05:39;2.60;;;1.75;;
48092;SDS011;33873;47.442;18.902;2022-10-16T04:08:07;3.60;;;2.75;;
48092;SDS011;33873;47.442;18.902;2022-10-16T04:10:35;4.80;;;2.90;;
48092;SDS011;33873;47.442;18.902;2022-10-16T04:13:02;6.72;;;2.08;;
48092;SDS011;33873;47.442;18.902;2022-10-16T04:15:30;4.30;;;2.05;;
48092;SDS011;33873;47.442;18.902;2022-10-16T04:17:57;6.53;;;4.25;;
48092;SDS011;33873;47.442;18.902;2022-10-16T04:20:25;3.85;;;2.37;;
48092;SDS011;33873;47.442;18.902;2022-10-16T04:22:52;4.03;;;3.37;;
48092;SDS011;33873;47.442;18.902;2022-10-16T04:25:20;3.47;;;1.83;;
48092;SDS011;33873;47.442;18.902;2022-10-16T04:27:47;4.07;;;2.30;;
48092;SDS011;33873;47.442;18.902;2022-10-16T04:30:15;4.00;;;3.10;;
48092;SDS011;33873;47.442;18.902;2022-10-16T04:32:43;3.22;;;2.62;;
48092;SDS011;33873;47.442;18.902;2022-10-16T04:35:10;4.00;;;2.80;;
48092;SDS011;33873;47.442;18.902;2022-10-16T04:37:37;6.55;;;2.75;;
48092;SDS011;33873;47.442;18.902;2022-10-16T04:40:05;3.72;;;2.30;;
48092;SDS011;33873;47.442;18.902;2022-10-16T04:42:33;3.92;;;2.15;;
48092;SDS011;33873;47.442;18.902;2022-10-16T04:45:00;5.93;;;2.78;;
48092;SDS011;33873;47.442;18.902;2022-10-16T04:47:28;3.67;;;2.50;;
48092;SDS011;33873;47.442;18.902;2022-10-16T04:49:56;5.78;;;2.85;;
48092;SDS011;33873;47.442;18.902;2022-10-16T04:52:24;4.47;;;2.15;;
48092;SDS011;33873;47.442;18.902;2022-10-16T04:54:52;4.03;;;2.90;;
48092;SDS011;33873;47.442;18.902;2022-10-16T04:57:21;7.18;;;2.90;;
48092;SDS011;33873;47.442;18.902;2022-10-16T04:59:48;3.70;;;2.53;;
48092;SDS011;33873;47.442;18.902;2022-10-16T05:02:16;3.15;;;2.17;;
48092;SDS011;33873;47.442;18.902;2022-10-16T05:04:43;2.80;;;1.92;;
48092;SDS011;33873;47.442;18.902;2022-10-16T05:07:10;9.43;;;3.87;;
48092;SDS011;33873;47.442;18.902;2022-10-16T05:09:38;5.90;;;3.03;;
48092;SDS011;33873;47.442;18.902;2022-10-16T05:12:05;5.93;;;1.70;;
48092;SDS011;33873;47.442;18.902;2022-10-16T05:14:33;5.90;;;3.45;;
48092;SDS011;33873;47.442;18.902;2022-10-16T05:17:01;5.03;;;2.78;;
48092;SDS011;33873;47.442;18.902;2022-10-16T05:19:28;5.18;;;2.80;;
48092;SDS011;33873;47.442;18.902;2022-10-16T05:21:56;3.40;;;2.40;;
48092;SDS011;33873;47.442;18.902;2022-10-16T05:24:23;7.97;;;3.60;;
48092;SDS011;33873;47.442;18.902;2022-10-16T05:26:51;4.70;;;2.72;;
48092;SDS011;33873;47.442;18.902;2022-10-16T05:29:19;4.93;;;2.37;;
48092;SDS011;33873;47.442;18.902;2022-10-16T05:31:49;3.30;;;2.10;;
48092;SDS011;33873;47.442;18.902;2022-10-16T05:34:17;17.50;;;4.07;;
48092;SDS011;33873;47.442;18.902;2022-10-16T05:36:45;9.45;;;4.68;;
48092;SDS011;33873;47.442;18.902;2022-10-16T05:39:14;12.80;;;7.45;;
48092;SDS011;33873;47.442;18.902;2022-10-16T05:41:42;10.38;;;6.00;;
48092;SDS011;33873;47.442;18.902;2022-10-16T05:44:10;26.00;;;9.95;;
48092;SDS011;33873;47.442;18.902;2022-10-16T05:46:38;11.27;;;6.35;;
48092;SDS011;33873;47.442;18.902;2022-10-16T05:49:05;8.05;;;4.65;;
48092;SDS011;33873;47.442;18.902;2022-10-16T05:51:33;9.23;;;3.87;;
48092;SDS011;33873;47.442;18.902;2022-10-16T05:54:00;8.73;;;3.55;;
48092;SDS011;33873;47.442;18.902;2022-10-16T05:56:28;12.20;;;5.72;;
48092;SDS011;33873;47.442;18.902;2022-10-16T05:58:55;5.12;;;3.50;;
48092;SDS011;33873;47.442;18.902;2022-10-16T06:01:23;7.37;;;3.05;;
48092;SDS011;33873;47.442;18.902;2022-10-16T06:03:51;6.25;;;3.78;;
48092;SDS011;33873;47.442;18.902;2022-10-16T06:06:20;4.93;;;3.30;;
48092;SDS011;33873;47.442;18.902;2022-10-16T06:08:49;4.12;;;2.90;;
48092;SDS011;33873;47.442;18.902;2022-10-16T06:11:21;3.87;;;2.05;;
48092;SDS011;33873;47.442;18.902;2022-10-16T06:13:50;4.97;;;3.12;;
48092;SDS011;33873;47.442;18.902;2022-10-16T06:16:19;4.32;;;2.78;;
48092;SDS011;33873;47.442;18.902;2022-10-16T06:18:47;3.92;;;2.95;;
48092;SDS011;33873;47.442;18.902;2022-10-16T06:21:16;5.07;;;2.87;;
48092;SDS011;33873;47.442;18.902;2022-10-16T06:23:45;4.85;;;3.50;;
48092;SDS011;33873;47.442;18.902;2022-10-16T06:26:14;6.22;;;3.33;;
48092;SDS011;33873;47.442;18.902;2022-10-16T06:28:43;5.72;;;3.15;;
48092;SDS011;33873;47.442;18.902;2022-10-16T06:31:11;5.05;;;2.90;;
48092;SDS011;33873;47.442;18.902;2022-10-16T06:33:39;21.58;;;3.47;;
48092;SDS011;33873;47.442;18.902;2022-10-16T06:36:08;6.30;;;3.00;;
48092;SDS011;33873;47.442;18.902;2022-10-16T06:38:38;3.75;;;3.35;;
48092;SDS011;33873;47.442;18.902;2022-10-16T06:41:06;5.78;;;2.60;;
48092;SDS011;33873;47.442;18.902;2022-10-16T06:43:34;3.62;;;2.97;;
48092;SDS011;33873;47.442;18.902;2022-10-16T06:46:05;2.83;;;2.05;;
48092;SDS011;33873;47.442;18.902;2022-10-16T06:48:37;3.15;;;2.47;;
48092;SDS011;33873;47.442;18.902;2022-10-16T06:51:09;7.28;;;4.28;;
48092;SDS011;33873;47.442;18.902;2022-10-16T06:53:40;4.25;;;2.87;;
48092;SDS011;33873;47.442;18.902;2022-10-16T06:56:28;5.35;;;3.22;;
48092;SDS011;33873;47.442;18.902;2022-10-16T06:58:58;3.10;;;2.45;;
48092;SDS011;33873;47.442;18.902;2022-10-16T07:01:26;6.28;;;2.75;;
48092;SDS011;33873;47.442;18.902;2022-10-16T07:03:54;4.72;;;2.72;;
48092;SDS011;33873;47.442;18.902;2022-10-16T07:06:23;5.87;;;3.08;;
48092;SDS011;33873;47.442;18.902;2022-10-16T07:08:51;4.75;;;2.85;;
48092;SDS011;33873;47.442;18.902;2022-10-16T07:11:20;6.25;;;2.95;;
48092;SDS011;33873;47.442;18.902;2022-10-16T07:13:49;5.40;;;2.67;;
48092;SDS011;33873;47.442;18.902;2022-10-16T07:16:24;9.93;;;2.28;;
48092;SDS011;33873;47.442;18.902;2022-10-16T07:18:55;6.57;;;2.70;;
48092;SDS011;33873;47.442;18.902;2022-10-16T07:21:28;9.60;;;3.83;;
48092;SDS011;33873;47.442;18.902;2022-10-16T07:23:59;4.55;;;2.37;;
48092;SDS011;33873;47.442;18.902;2022-10-16T07:26:29;3.92;;;2.60;;
48092;SDS011;33873;47.442;18.902;2022-10-16T07:28:58;3.92;;;2.62;;
48092;SDS011;33873;47.442;18.902;2022-10-16T07:31:26;3.60;;;2.42;;
48092;SDS011;33873;47.442;18.902;2022-10-16T07:33:54;3.55;;;2.25;;
48092;SDS011;33873;47.442;18.902;2022-10-16T07:36:22;3.25;;;2.12;;
48092;SDS011;33873;47.442;18.902;2022-10-16T07:38:49;4.90;;;2.87;;
48092;SDS011;33873;47.442;18.902;2022-10-16T07:41:21;9.27;;;5.30;;
48092;SDS011;33873;47.442;18.902;2022-10-16T07:43:50;6.93;;;3.95;;
48092;SDS011;33873;47.442;18.902;2022-10-16T07:46:19;4.68;;;2.70;;
48092;SDS011;33873;47.442;18.902;2022-10-16T07:48:48;6.00;;;3.33;;
48092;SDS011;33873;47.442;18.902;2022-10-16T07:51:19;7.00;;;3.25;;
48092;SDS011;33873;47.442;18.902;2022-10-16T07:53:52;4.32;;;3.05;;
48092;SDS011;33873;47.442;18.902;2022-10-16T07:56:20;4.62;;;3.05;;
48092;SDS011;33873;47.442;18.902;2022-10-16T07:58:48;8.50;;;4.47;;
48092;SDS011;33873;47.442;18.902;2022-10-16T08:01:17;5.15;;;2.58;;
48092;SDS011;33873;47.442;18.902;2022-10-16T08:03:46;6.43;;;3.42;;
48092;SDS011;33873;47.442;18.902;2022-10-16T08:06:15;6.62;;;3.00;;
48092;SDS011;33873;47.442;18.902;2022-10-16T08:08:48;8.90;;;4.07;;
48092;SDS011;33873;47.442;18.902;2022-10-16T08:11:15;4.93;;;3.05;;
48092;SDS011;33873;47.442;18.902;2022-10-16T08:13:43;9.30;;;5.37;;
48092;SDS011;33873;47.442;18.902;2022-10-16T08:16:11;7.72;;;3.80;;
48092;SDS011;33873;47.442;18.902;2022-10-16T08:18:39;3.25;;;2.20;;
48092;SDS011;33873;47.442;18.902;2022-10-16T08:21:08;6.70;;;4.28;;
48092;SDS011;33873;47.442;18.902;2022-10-16T08:23:48;3.75;;;2.33;;
48092;SDS011;33873;47.442;18.902;2022-10-16T08:28:50;3.87;;;2.75;;
48092;SDS011;33873;47.442;18.902;2022-10-16T08:31:19;6.05;;;3.78;;
48092;SDS011;33873;47.442;18.902;2022-10-16T08:33:47;6.35;;;3.92;;
48092;SDS011;33873;47.442;18.902;2022-10-16T08:36:15;7.00;;;4.32;;
48092;SDS011;33873;47.442;18.902;2022-10-16T08:38:43;6.87;;;3.97;;
48092;SDS011;33873;47.442;18.902;2022-10-16T08:41:17;8.23;;;3.62;;
48092;SDS011;33873;47.442;18.902;2022-10-16T08:49:02;8.55;;;3.90;;
48092;SDS011;33873;47.442;18.902;2022-10-16T08:51:30;7.72;;;5.20;;
48092;SDS011;33873;47.442;18.902;2022-10-16T08:54:48;6.43;;;2.85;;
48092;SDS011;33873;47.442;18.902;2022-10-16T08:57:00;4.30;;;2.85;;
48092;SDS011;33873;47.442;18.902;2022-10-16T08:59:34;4.50;;;3.12;;
48092;SDS011;33873;47.442;18.902;2022-10-16T09:02:02;7.35;;;3.80;;
48092;SDS011;33873;47.442;18.902;2022-10-16T09:04:52;10.68;;;3.35;;
48092;SDS011;33873;47.442;18.902;2022-10-16T09:10:46;12.02;;;6.53;;
48092;SDS011;33873;47.442;18.902;2022-10-16T09:13:52;7.37;;;4.40;;
48092;SDS011;33873;47.442;18.902;2022-10-16T09:16:27;5.35;;;3.80;;
48092;SDS011;33873;47.442;18.902;2022-10-16T09:21:52;6.82;;;4.28;;
48092;SDS011;33873;47.442;18.902;2022-10-16T09:24:21;5.03;;;3.30;;
48092;SDS011;33873;47.442;18.902;2022-10-16T09:29:22;6.72;;;4.75;;
48092;SDS011;33873;47.442;18.902;2022-10-16T09:31:52;5.47;;;4.07;;
48092;SDS011;33873;47.442;18.902;2022-10-16T09:34:35;6.10;;;4.03;;
48092;SDS011;33873;47.442;18.902;2022-10-16T09:37:05;7.68;;;4.35;;
48092;SDS011;33873;47.442;18.902;2022-10-16T09:39:44;5.68;;;3.65;;
48092;SDS011;33873;47.442;18.902;2022-10-16T09:42:18;8.07;;;5.50;;
48092;SDS011;33873;47.442;18.902;2022-10-16T09:44:51;7.62;;;3.75;;
48092;SDS011;33873;47.442;18.902;2022-10-16T09:47:21;4.20;;;3.53;;
48092;SDS011;33873;47.442;18.902;2022-10-16T09:52:19;7.53;;;4.53;;
48092;SDS011;33873;47.442;18.902;2022-10-16T09:54:57;7.60;;;4.20;;
48092;SDS011;33873;47.442;18.902;2022-10-16T09:57:26;9.15;;;4.85;;
48092;SDS011;33873;47.442;18.902;2022-10-16T09:59:56;7.28;;;3.42;;
48092;SDS011;33873;47.442;18.902;2022-10-16T10:02:34;6.20;;;3.75;;
48092;SDS011;33873;47.442;18.902;2022-10-16T10:05:04;12.37;;;4.57;;
48092;SDS011;33873;47.442;18.902;2022-10-16T10:07:33;9.85;;;4.53;;
48092;SDS011;33873;47.442;18.902;2022-10-16T10:10:04;5.15;;;4.32;;
48092;SDS011;33873;47.442;18.902;2022-10-16T10:12:32;9.18;;;5.85;;
48092;SDS011;33873;47.442;18.902;2022-10-16T10:15:04;9.00;;;5.07;;
48092;SDS011;33873;47.442;18.902;2022-10-16T10:17:44;5.03;;;3.30;;
48092;SDS011;33873;47.442;18.902;2022-10-16T10:26:06;7.57;;;5.07;;
48092;SDS011;33873;47.442;18.902;2022-10-16T10:36:43;8.50;;;5.00;;
48092;SDS011;33873;47.442;18.902;2022-10-16T10:47:57;7.85;;;4.43;;
48092;SDS011;33873;47.442;18.902;2022-10-16T10:50:33;10.32;;;4.37;;
48092;SDS011;33873;47.442;18.902;2022-10-16T10:56:57;7.53;;;4.95;;
48092;SDS011;33873;47.442;18.902;2022-10-16T11:10:20;5.18;;;2.87;;
48092;SDS011;33873;47.442;18.902;2022-10-16T11:16:03;8.45;;;3.92;;
48092;SDS011;33873;47.442;18.902;2022-10-16T11:18:53;11.00;;;5.10;;
48092;SDS011;33873;47.442;18.902;2022-10-16T11:21:27;7.60;;;4.45;;
48092;SDS011;33873;47.442;18.902;2022-10-16T11:24:05;6.45;;;3.72;;
48092;SDS011;33873;47.442;18.902;2022-10-16T11:26:42;4.80;;;2.80;;
48092;SDS011;33873;47.442;18.902;2022-10-16T11:29:12;7.82;;;4.53;;
48092;SDS011;33873;47.442;18.902;2022-10-16T11:31:49;5.05;;;2.83;;
48092;SDS011;33873;47.442;18.902;2022-10-16T11:37:19;7.62;;;4.60;;
48092;SDS011;33873;47.442;18.902;2022-10-16T11:39:49;7.03;;;4.12;;
48092;SDS011;33873;47.442;18.902;2022-10-16T11:42:54;6.53;;;4.07;;
48092;SDS011;33873;47.442;18.902;2022-10-16T11:51:00;4.47;;;2.53;;
48092;SDS011;33873;47.442;18.902;2022-10-16T11:56:19;6.43;;;3.17;;
48092;SDS011;33873;47.442;18.902;2022-10-16T11:58:58;9.02;;;3.67;;
48092;SDS011;33873;47.442;18.902;2022-10-16T12:04:16;4.78;;;3.10;;
48092;SDS011;33873;47.442;18.902;2022-10-16T12:06:55;10.45;;;4.30;;
48092;SDS011;33873;47.442;18.902;2022-10-16T12:09:26;7.45;;;3.85;;
48092;SDS011;33873;47.442;18.902;2022-10-16T12:11:55;6.70;;;3.70;;
48092;SDS011;33873;47.442;18.902;2022-10-16T12:16:57;5.35;;;3.30;;
48092;SDS011;33873;47.442;18.902;2022-10-16T12:19:27;5.25;;;3.55;;
48092;SDS011;33873;47.442;18.902;2022-10-16T12:21:56;7.97;;;3.50;;
48092;SDS011;33873;47.442;18.902;2022-10-16T12:27:05;6.78;;;4.25;;
48092;SDS011;33873;47.442;18.902;2022-10-16T12:29:44;6.37;;;3.17;;
48092;SDS011;33873;47.442;18.902;2022-10-16T12:32:24;6.93;;;3.97;;
48092;SDS011;33873;47.442;18.902;2022-10-16T12:35:19;6.22;;;2.87;;
48092;SDS011;33873;47.442;18.902;2022-10-16T12:37:49;7.15;;;3.80;;
48092;SDS011;33873;47.442;18.902;2022-10-16T12:40:30;6.12;;;3.50;;
48092;SDS011;33873;47.442;18.902;2022-10-16T12:43:10;6.00;;;3.67;;
48092;SDS011;33873;47.442;18.902;2022-10-16T12:45:39;6.18;;;3.58;;
48092;SDS011;33873;47.442;18.902;2022-10-16T12:48:20;7.15;;;3.30;;
48092;SDS011;33873;47.442;18.902;2022-10-16T12:51:09;17.37;;;4.37;;
48092;SDS011;33873;47.442;18.902;2022-10-16T12:54:13;7.82;;;4.12;;
48092;SDS011;33873;47.442;18.902;2022-10-16T13:02:11;9.43;;;3.03;;
48092;SDS011;33873;47.442;18.902;2022-10-16T13:21:58;5.65;;;3.17;;
48092;SDS011;33873;47.442;18.902;2022-10-16T13:28:01;7.35;;;3.80;;
48092;SDS011;33873;47.442;18.902;2022-10-16T13:30:16;8.38;;;4.70;;
48092;SDS011;33873;47.442;18.902;2022-10-16T13:32:46;6.57;;;3.08;;
48092;SDS011;33873;47.442;18.902;2022-10-16T13:35:26;6.47;;;3.37;;
48092;SDS011;33873;47.442;18.902;2022-10-16T13:38:16;3.87;;;2.67;;
48092;SDS011;33873;47.442;18.902;2022-10-16T13:40:50;6.85;;;3.67;;
48092;SDS011;33873;47.442;18.902;2022-10-16T13:43:18;6.55;;;3.97;;
48092;SDS011;33873;47.442;18.902;2022-10-16T13:48:58;5.15;;;3.42;;
48092;SDS011;33873;47.442;18.902;2022-10-16T13:51:30;9.05;;;3.15;;
48092;SDS011;33873;47.442;18.902;2022-10-16T13:53:59;5.93;;;3.20;;
48092;SDS011;33873;47.442;18.902;2022-10-16T13:56:28;4.95;;;2.53;;
48092;SDS011;33873;47.442;18.902;2022-10-16T13:59:22;7.30;;;3.17;;
48092;SDS011;33873;47.442;18.902;2022-10-16T14:01:47;7.68;;;4.72;;
48092;SDS011;33873;47.442;18.902;2022-10-16T14:04:15;7.37;;;3.58;;
48092;SDS011;33873;47.442;18.902;2022-10-16T14:06:43;7.60;;;3.65;;
48092;SDS011;33873;47.442;18.902;2022-10-16T14:09:14;6.97;;;3.50;;
48092;SDS011;33873;47.442;18.902;2022-10-16T14:11:57;8.82;;;4.45;;
48092;SDS011;33873;47.442;18.902;2022-10-16T14:14:29;7.28;;;3.87;;
48092;SDS011;33873;47.442;18.902;2022-10-16T14:17:02;8.27;;;4.25;;
48092;SDS011;33873;47.442;18.902;2022-10-16T14:19:30;7.40;;;4.72;;
48092;SDS011;33873;47.442;18.902;2022-10-16T14:21:58;5.32;;;3.50;;
48092;SDS011;33873;47.442;18.902;2022-10-16T14:24:31;6.00;;;3.53;;
48092;SDS011;33873;47.442;18.902;2022-10-16T14:27:00;7.35;;;4.28;;
48092;SDS011;33873;47.442;18.902;2022-10-16T14:29:29;5.05;;;3.17;;
48092;SDS011;33873;47.442;18.902;2022-10-16T14:34:28;5.00;;;2.30;;
48092;SDS011;33873;47.442;18.902;2022-10-16T14:37:02;4.90;;;3.00;;
48092;SDS011;33873;47.442;18.902;2022-10-16T14:39:41;5.47;;;3.10;;
48092;SDS011;33873;47.442;18.902;2022-10-16T14:42:14;7.12;;;3.83;;
48092;SDS011;33873;47.442;18.902;2022-10-16T14:44:44;6.78;;;3.37;;
48092;SDS011;33873;47.442;18.902;2022-10-16T14:47:13;8.60;;;4.05;;
48092;SDS011;33873;47.442;18.902;2022-10-16T14:49:43;7.45;;;3.62;;
48092;SDS011;33873;47.442;18.902;2022-10-16T14:52:11;6.65;;;2.65;;
48092;SDS011;33873;47.442;18.902;2022-10-16T14:54:40;7.80;;;4.05;;
48092;SDS011;33873;47.442;18.902;2022-10-16T14:57:18;5.53;;;3.50;;
48092;SDS011;33873;47.442;18.902;2022-10-16T14:59:47;5.10;;;2.97;;
48092;SDS011;33873;47.442;18.902;2022-10-16T15:04:53;5.70;;;2.95;;
48092;SDS011;33873;47.442;18.902;2022-10-16T15:07:20;6.28;;;3.12;;
48092;SDS011;33873;47.442;18.902;2022-10-16T15:09:48;9.27;;;4.22;;
48092;SDS011;33873;47.442;18.902;2022-10-16T15:12:16;8.05;;;3.47;;
48092;SDS011;33873;47.442;18.902;2022-10-16T15:14:44;5.70;;;3.03;;
48092;SDS011;33873;47.442;18.902;2022-10-16T15:17:11;10.95;;;5.45;;
48092;SDS011;33873;47.442;18.902;2022-10-16T15:19:40;7.68;;;4.28;;
48092;SDS011;33873;47.442;18.902;2022-10-16T15:22:09;6.53;;;4.05;;
48092;SDS011;33873;47.442;18.902;2022-10-16T15:24:38;11.43;;;7.12;;
48092;SDS011;33873;47.442;18.902;2022-10-16T15:27:06;11.77;;;7.28;;
48092;SDS011;33873;47.442;18.902;2022-10-16T15:29:34;12.18;;;4.87;;
48092;SDS011;33873;47.442;18.902;2022-10-16T15:32:01;5.95;;;3.47;;
48092;SDS011;33873;47.442;18.902;2022-10-16T15:34:29;3.97;;;2.62;;
48092;SDS011;33873;47.442;18.902;2022-10-16T15:36:57;9.35;;;4.65;;
48092;SDS011;33873;47.442;18.902;2022-10-16T15:39:25;9.02;;;4.20;;
48092;SDS011;33873;47.442;18.902;2022-10-16T15:41:53;9.43;;;4.10;;
48092;SDS011;33873;47.442;18.902;2022-10-16T15:44:20;7.10;;;4.22;;
48092;SDS011;33873;47.442;18.902;2022-10-16T15:46:50;7.32;;;3.70;;
48092;SDS011;33873;47.442;18.902;2022-10-16T15:49:18;9.13;;;4.43;;
48092;SDS011;33873;47.442;18.902;2022-10-16T15:51:45;7.30;;;4.78;;
48092;SDS011;33873;47.442;18.902;2022-10-16T15:54:13;9.70;;;5.47;;
48092;SDS011;33873;47.442;18.902;2022-10-16T15:56:41;16.25;;;10.18;;
48092;SDS011;33873;47.442;18.902;2022-10-16T15:59:08;21.17;;;11.12;;
48092;SDS011;33873;47.442;18.902;2022-10-16T16:01:36;23.27;;;12.05;;
48092;SDS011;33873;47.442;18.902;2022-10-16T16:04:03;21.83;;;15.02;;
48092;SDS011;33873;47.442;18.902;2022-10-16T16:06:41;12.75;;;6.75;;
48092;SDS011;33873;47.442;18.902;2022-10-16T16:09:12;11.80;;;6.97;;
48092;SDS011;33873;47.442;18.902;2022-10-16T16:11:41;12.20;;;6.78;;
48092;SDS011;33873;47.442;18.902;2022-10-16T16:14:12;16.02;;;8.60;;
48092;SDS011;33873;47.442;18.902;2022-10-16T16:16:41;14.32;;;8.05;;
48092;SDS011;33873;47.442;18.902;2022-10-16T16:19:09;18.90;;;10.15;;
48092;SDS011;33873;47.442;18.902;2022-10-16T16:21:38;16.15;;;11.68;;
48092;SDS011;33873;47.442;18.902;2022-10-16T16:24:06;16.50;;;7.68;;
48092;SDS011;33873;47.442;18.902;2022-10-16T16:26:35;18.05;;;10.82;;
48092;SDS011;33873;47.442;18.902;2022-10-16T16:29:06;17.17;;;10.82;;
48092;SDS011;33873;47.442;18.902;2022-10-16T16:31:35;11.32;;;6.87;;
48092;SDS011;33873;47.442;18.902;2022-10-16T16:34:03;11.07;;;7.12;;
48092;SDS011;33873;47.442;18.902;2022-10-16T16:36:31;9.02;;;5.45;;
48092;SDS011;33873;47.442;18.902;2022-10-16T16:38:59;13.52;;;6.20;;
48092;SDS011;33873;47.442;18.902;2022-10-16T16:41:27;10.32;;;6.35;;
48092;SDS011;33873;47.442;18.902;2022-10-16T16:44:06;8.90;;;5.07;;
48092;SDS011;33873;47.442;18.902;2022-10-16T16:46:36;8.63;;;5.82;;
48092;SDS011;33873;47.442;18.902;2022-10-16T16:49:04;8.68;;;5.47;;
48092;SDS011;33873;47.442;18.902;2022-10-16T16:51:32;9.15;;;5.15;;
48092;SDS011;33873;47.442;18.902;2022-10-16T16:54:06;13.98;;;6.20;;
48092;SDS011;33873;47.442;18.902;2022-10-16T16:56:35;8.80;;;5.12;;
48092;SDS011;33873;47.442;18.902;2022-10-16T16:59:02;9.75;;;5.62;;
48092;SDS011;33873;47.442;18.902;2022-10-16T17:01:31;9.05;;;4.93;;
48092;SDS011;33873;47.442;18.902;2022-10-16T17:03:59;14.77;;;6.30;;
48092;SDS011;33873;47.442;18.902;2022-10-16T17:06:27;9.07;;;5.55;;